createdAt,value
2023-02-16T04:50:57.949Z,101580.97
2023-02-16T04:53:24.728Z,101582.63
2023-02-16T04:55:51.329Z,101581.56
2023-02-16T04:58:17.894Z,101579.34
2023-02-16T05:00:44.536Z,101587.56
2023-02-16T05:03:11.154Z,101583.72
2023-02-16T05:05:37.699Z,101581.78
2023-02-16T05:08:04.307Z,101586.41
2023-02-16T05:10:30.826Z,101591.34
2023-02-16T05:13:15.834Z,101587.53
2023-02-16T05:15:42.403Z,101588.09
2023-02-16T05:18:08.944Z,101580.94
2023-02-16T05:20:54.388Z,101585.84
2023-02-16T05:23:20.967Z,101583.66
2023-02-16T05:25:47.532Z,101594.66
2023-02-16T05:28:14.093Z,101599.31
2023-02-16T05:30:40.695Z,101601.78
2023-02-16T05:33:07.256Z,101588.59
2023-02-16T05:35:34.485Z,101591.91
2023-02-16T05:38:01.105Z,101590.78
2023-02-16T05:40:27.686Z,101583.91
2023-02-16T05:42:54.861Z,101583.91
2023-02-16T05:45:21.430Z,101583.09
2023-02-16T05:47:48.044Z,101586.66
2023-02-16T05:50:14.634Z,101580.63
2023-02-16T05:52:41.218Z,101579.00
2023-02-16T05:55:07.834Z,101579.00
2023-02-16T05:57:35.690Z,101592.16
2023-02-16T06:00:03.995Z,101597.34
2023-02-16T06:02:31.162Z,101604.50
2023-02-16T06:04:57.830Z,101577.66
2023-02-16T06:07:24.358Z,101597.34
2023-02-16T06:09:50.922Z,101595.19
2023-02-16T06:12:17.519Z,101601.47
2023-02-16T06:14:44.086Z,101579.03
2023-02-16T06:17:10.724Z,101606.97
2023-02-16T06:19:37.255Z,101596.84
2023-02-16T06:22:03.834Z,101603.69
2023-02-16T06:24:30.438Z,101612.19
2023-02-16T06:26:57.048Z,101610.56
2023-02-16T06:29:23.636Z,101608.94
2023-02-16T06:31:50.337Z,101617.72
2023-02-16T06:34:16.968Z,101630.91
2023-02-16T06:36:43.679Z,101631.97
2023-02-16T06:39:10.186Z,101636.41
2023-02-16T06:41:40.138Z,101645.72
2023-02-16T06:44:08.626Z,101641.34
2023-02-16T06:46:35.201Z,101637.50
2023-02-16T06:49:01.737Z,101635.28
2023-02-16T06:51:28.307Z,101641.34
2023-02-16T06:53:54.916Z,101634.22
2023-02-16T06:56:21.706Z,101632.03
2023-02-16T06:58:48.426Z,101621.06
2023-02-16T07:01:15.083Z,101633.13
2023-02-16T07:03:41.831Z,101637.25
2023-02-16T07:06:08.386Z,101635.84
2023-02-16T07:08:35.831Z,101643.00
2023-02-16T07:11:02.606Z,101648.25
2023-02-16T07:13:29.259Z,101641.94
2023-02-16T07:15:55.830Z,101652.31
2023-02-16T07:18:22.415Z,101640.81
2023-02-16T07:20:48.986Z,101644.94
2023-02-16T07:23:15.552Z,101644.69
2023-02-16T07:25:42.126Z,101637.56
2023-02-16T07:28:08.695Z,101647.94
2023-02-16T07:30:36.008Z,101649.63
2023-02-16T07:33:03.008Z,101647.97
2023-02-16T07:35:29.631Z,101649.63
2023-02-16T07:37:56.287Z,101647.97
2023-02-16T07:40:22.944Z,101628.75
2023-02-16T07:42:49.542Z,101654.56
2023-02-16T07:45:16.070Z,101648.50
2023-02-16T07:47:42.652Z,101652.59
2023-02-16T07:50:09.626Z,101642.19
2023-02-16T07:52:36.215Z,101639.75
2023-02-16T07:55:03.444Z,101663.31
2023-02-16T07:57:30.027Z,101664.41
2023-02-16T07:59:56.681Z,101646.31
2023-02-16T08:02:23.490Z,101655.91
2023-02-16T08:04:52.560Z,101663.91
2023-02-16T08:07:19.227Z,101650.16
2023-02-16T08:09:46.937Z,101665.00
2023-02-16T08:12:13.993Z,101669.09
2023-02-16T08:14:40.638Z,101659.47
2023-02-16T08:17:07.578Z,101662.22
2023-02-16T08:19:34.374Z,101669.94
2023-02-16T08:22:02.391Z,101674.88
2023-02-16T08:24:29.219Z,101668.81
2023-02-16T08:26:55.943Z,101672.91
2023-02-16T08:29:23.478Z,101671.84
2023-02-16T08:31:50.212Z,101671.00
2023-02-16T08:34:18.096Z,101676.78
2023-02-16T08:36:45.621Z,101664.47
2023-02-16T08:39:14.862Z,101669.09
2023-02-16T08:41:41.683Z,101670.22
2023-02-16T08:44:08.718Z,101668.28
2023-02-16T08:46:36.124Z,101655.91
2023-02-16T08:49:03.163Z,101663.56
2023-02-16T08:51:31.709Z,101666.63
2023-02-16T08:53:58.854Z,101654.56
2023-02-16T08:56:25.939Z,101663.31
2023-02-16T08:58:52.596Z,101670.72
2023-02-16T09:01:19.297Z,101660.03
2023-02-16T09:03:46.207Z,101669.91
2023-02-16T09:06:13.860Z,101661.13
2023-02-16T09:08:40.795Z,101661.13
2023-02-16T09:11:14.475Z,101641.38
2023-02-16T09:13:41.197Z,101653.13
2023-02-16T09:16:09.825Z,101648.47
2023-02-16T09:18:36.909Z,101647.38
2023-02-16T09:21:10.854Z,101657.78
2023-02-16T09:23:38.557Z,101657.25
2023-02-16T09:26:09.574Z,101664.13
2023-02-16T09:28:40.087Z,101672.59
2023-02-16T09:31:20.469Z,101673.41
2023-02-16T09:33:47.166Z,101669.31
2023-02-16T09:36:13.864Z,101663.22
2023-02-16T09:38:40.588Z,101666.28
2023-02-16T09:41:39.056Z,101660.50
2023-02-16T09:44:21.695Z,101664.63
2023-02-16T09:46:48.636Z,101659.44
2023-02-16T09:49:29.075Z,101659.44
2023-02-16T09:52:11.893Z,101663.81
2023-02-16T09:54:49.179Z,101658.34
2023-02-16T09:57:27.495Z,101651.16
2023-02-16T10:00:00.593Z,101654.47
2023-02-16T10:02:32.146Z,101662.66
2023-02-16T10:05:08.530Z,101650.31
2023-02-16T10:08:00.015Z,101641.81
2023-02-16T10:10:39.825Z,101640.94
2023-02-16T10:13:12.894Z,101639.00
2023-02-16T10:15:40.165Z,101641.78
2023-02-16T10:18:25.002Z,101640.63
2023-02-16T10:20:53.285Z,101635.13
2023-02-16T10:23:28.827Z,101631.56
2023-02-16T10:26:13.787Z,101624.38
2023-02-16T10:28:48.264Z,101628.00
2023-02-16T10:31:32.587Z,101619.25
2023-02-16T10:34:17.626Z,101629.13
2023-02-16T10:37:22.171Z,101626.38
2023-02-16T10:40:09.748Z,101624.75
2023-02-16T10:42:59.629Z,101619.78
2023-02-16T10:45:49.593Z,101618.72
2023-02-16T10:48:16.410Z,101624.47
2023-02-16T10:50:47.827Z,101620.63
2023-02-16T10:53:17.744Z,101617.59
2023-02-16T10:55:44.448Z,101617.63
2023-02-16T10:58:18.595Z,101609.31
2023-02-16T11:01:16.663Z,101613.69
2023-02-16T11:03:49.604Z,101609.25
2023-02-16T11:06:17.382Z,101602.56
2023-02-16T11:08:51.208Z,101588.81
2023-02-16T11:11:17.767Z,101590.19
2023-02-16T11:13:47.596Z,101563.84
2023-02-16T11:16:19.675Z,101575.06
2023-02-16T11:18:49.606Z,101577.75
2023-02-16T11:21:16.616Z,101546.56
2023-02-16T11:23:43.923Z,101573.06
2023-02-16T11:26:10.551Z,101574.41
2023-02-16T11:28:47.629Z,101566.09
2023-02-16T11:31:17.697Z,101561.66
2023-02-16T11:34:05.816Z,101551.13
2023-02-16T11:36:39.929Z,101554.41
2023-02-16T11:39:27.633Z,101546.41
2023-02-16T11:42:02.959Z,101539.00
2023-02-16T11:44:41.292Z,101539.72
2023-02-16T11:47:21.742Z,101517.81
2023-02-16T11:49:49.511Z,101532.78
2023-02-16T11:52:23.179Z,101487.88
2023-02-16T11:54:53.490Z,101511.88
2023-02-16T11:57:33.683Z,101509.34
2023-02-16T12:00:01.219Z,101513.19
2023-02-16T12:02:46.279Z,101501.31
2023-02-16T12:05:32.169Z,101498.53
2023-02-16T12:08:24.893Z,101488.19
2023-02-16T12:11:06.485Z,101503.50
2023-02-16T12:13:49.430Z,101498.66
2023-02-16T12:16:54.228Z,101490.63
2023-02-16T12:19:42.865Z,101486.44
2023-02-16T12:22:19.648Z,101483.41
2023-02-16T12:25:02.841Z,101487.44
2023-02-16T12:27:48.095Z,101489.47
2023-02-16T12:30:44.792Z,101475.38
2023-02-16T12:33:33.128Z,101490.47
2023-02-16T12:36:20.155Z,101482.13
2023-02-16T12:39:40.549Z,101476.56
2023-02-16T12:42:40.995Z,101471.47
2023-02-16T12:45:22.025Z,101465.38
2023-02-16T12:47:57.452Z,101459.84
2023-02-16T12:50:31.298Z,101469.91
2023-02-16T12:53:10.588Z,101461.88
2023-02-16T12:55:39.992Z,101451.47
2023-02-16T12:58:15.784Z,101461.25
2023-02-16T13:00:49.446Z,101454.66
2023-02-16T13:03:29.086Z,101451.84
2023-02-16T13:06:18.550Z,101452.09
2023-02-16T13:09:06.775Z,101430.44
2023-02-16T13:11:38.482Z,101438.06
2023-02-16T13:14:11.237Z,101432.50
2023-02-16T13:16:42.567Z,101444.50
2023-02-16T13:19:13.568Z,101436.25
2023-02-16T13:22:02.100Z,101440.59
2023-02-16T13:24:59.543Z,101433.97
2023-02-16T13:27:53.603Z,101425.88
2023-02-16T13:30:42.064Z,101430.88
2023-02-16T13:33:27.598Z,101404.28
2023-02-16T13:36:13.101Z,101423.19
2023-02-16T13:39:09.520Z,101420.09
2023-02-16T13:41:47.820Z,101410.84
2023-02-16T13:44:19.038Z,101411.91
2023-02-16T13:46:50.054Z,101405.34
2023-02-16T13:49:50.364Z,101411.84
2023-02-16T13:52:35.560Z,101405.81
2023-02-16T13:55:03.975Z,101400.06
2023-02-16T13:57:51.211Z,101400.31
2023-02-16T14:00:36.622Z,101392.63
2023-02-16T14:03:23.461Z,101391.00
2023-02-16T14:05:51.732Z,101384.16
2023-02-16T14:08:28.453Z,101384.97
2023-02-16T14:10:57.900Z,101383.09
2023-02-16T14:13:39.587Z,101385.84
2023-02-16T14:16:09.033Z,101381.22
2023-02-16T14:18:56.835Z,101368.91
2023-02-16T14:21:39.230Z,101375.72
2023-02-16T14:24:08.564Z,101375.75
2023-02-16T14:27:01.021Z,101377.94
2023-02-16T14:29:30.341Z,101374.13
2023-02-16T14:32:20.722Z,101367.50
2023-02-16T14:34:52.700Z,101366.97
2023-02-16T14:37:36.725Z,101362.00
2023-02-16T14:40:11.436Z,101354.34
2023-02-16T14:42:38.046Z,101364.81
2023-02-16T14:45:19.826Z,101360.97
2023-02-16T14:47:58.442Z,101362.13
2023-02-16T14:50:36.146Z,101364.34
2023-02-16T14:53:08.595Z,101361.56
2023-02-16T14:55:51.807Z,101360.97
2023-02-16T14:58:37.013Z,101362.47
2023-02-16T15:01:14.602Z,101367.16
2023-02-16T15:03:50.335Z,101366.69
2023-02-16T15:06:31.350Z,101364.72
2023-02-16T15:08:59.783Z,101355.13
2023-02-16T15:11:56.378Z,101352.13
2023-02-16T15:14:22.942Z,101348.25
2023-02-16T15:16:49.858Z,101350.44
2023-02-16T15:19:17.861Z,101357.06
2023-02-16T15:21:44.610Z,101307.81
2023-02-16T15:24:21.937Z,101352.88
2023-02-16T15:26:56.385Z,101358.38
2023-02-16T15:29:26.939Z,101349.84
2023-02-16T15:31:53.908Z,101344.13
2023-02-16T15:34:28.648Z,101349.25
2023-02-16T15:36:55.653Z,101342.19
2023-02-16T15:39:45.262Z,101345.75
2023-02-16T15:42:21.440Z,101354.75
2023-02-16T15:44:48.162Z,101358.91
2023-02-16T15:47:22.707Z,101353.72
2023-02-16T15:49:49.560Z,101360.63
2023-02-16T15:52:33.167Z,101358.16
2023-02-16T15:55:00.650Z,101358.16
2023-02-16T15:57:32.157Z,101348.31
2023-02-16T16:00:08.500Z,101340.97
2023-02-16T16:02:47.475Z,101351.13
2023-02-16T16:05:28.313Z,101351.59
2023-02-16T16:07:55.688Z,101350.56
2023-02-16T16:10:28.424Z,101335.31
2023-02-16T16:12:59.222Z,101358.00
2023-02-16T16:15:26.950Z,101357.44
2023-02-16T16:17:53.990Z,101320.59
2023-02-16T16:20:36.329Z,101348.69
2023-02-16T16:23:26.974Z,101353.34
2023-02-16T16:25:54.917Z,101353.06
2023-02-16T16:28:27.545Z,101346.75
2023-02-16T16:31:14.404Z,101340.44
2023-02-16T16:34:09.871Z,101344.81
2023-02-16T16:36:55.265Z,101345.94
2023-02-16T16:39:29.500Z,101351.72
2023-02-16T16:42:15.030Z,101343.47
2023-02-16T16:44:43.566Z,101343.78
2023-02-16T16:47:19.171Z,101351.13
2023-02-16T16:50:00.418Z,101350.56
2023-02-16T16:52:38.222Z,101349.97
2023-02-16T16:55:20.174Z,101347.72
2023-02-16T16:57:47.514Z,101344.00
2023-02-16T17:00:14.640Z,101352.19
2023-02-16T17:02:41.330Z,101350.09
2023-02-16T17:05:08.276Z,101353.84
2023-02-16T17:07:34.918Z,101367.25
2023-02-16T17:10:01.515Z,101364.06
2023-02-16T17:12:28.160Z,101347.09
2023-02-16T17:14:54.784Z,101356.34
2023-02-16T17:17:21.443Z,101378.72
2023-02-16T17:19:48.028Z,101386.34
2023-02-16T17:22:16.092Z,101380.25
2023-02-16T17:24:42.852Z,101375.25
2023-02-16T17:27:09.605Z,101376.88
2023-02-16T17:29:36.424Z,101379.34
2023-02-16T17:32:04.012Z,101353.91
2023-02-16T17:34:31.139Z,101371.06
2023-02-16T17:36:58.703Z,101379.53
2023-02-16T17:39:25.996Z,101376.78
2023-02-16T17:41:52.687Z,101369.69
2023-02-16T17:44:19.388Z,101374.59
2023-02-16T17:46:46.052Z,101381.13
2023-02-16T17:49:12.776Z,101378.38
2023-02-16T17:51:39.470Z,101328.66
2023-02-16T17:54:08.667Z,101382.22
2023-02-16T17:56:35.728Z,101372.88
2023-02-16T17:59:03.419Z,101376.13
2023-02-16T18:01:30.092Z,101377.81
2023-02-16T18:03:57.129Z,101372.88
2023-02-16T18:06:29.121Z,101386.31
2023-02-16T18:08:55.872Z,101384.38
2023-02-16T18:11:22.439Z,101391.53
2023-02-16T18:13:49.045Z,101383.81
2023-02-16T18:16:18.784Z,101384.94
2023-02-16T18:18:45.705Z,101368.53
2023-02-16T18:21:12.395Z,101380.25
2023-02-16T18:23:39.265Z,101387.38
2023-02-16T18:26:06.817Z,101381.06
2023-02-16T18:28:34.099Z,101381.06
2023-02-16T18:31:00.892Z,101381.59
2023-02-16T18:33:27.583Z,101356.44
2023-02-16T18:35:55.718Z,101373.94
2023-02-16T18:38:22.447Z,101383.81
2023-02-16T18:40:49.339Z,101371.97
2023-02-16T18:43:15.991Z,101371.72
2023-02-16T18:45:42.702Z,101376.66
2023-02-16T18:48:09.307Z,101377.69
2023-02-16T18:50:35.945Z,101373.59
2023-02-16T18:53:02.566Z,101373.00
2023-02-16T18:55:32.863Z,101363.41
2023-02-16T18:58:00.372Z,101363.06
2023-02-16T19:00:27.135Z,101366.34
2023-02-16T19:02:55.285Z,101343.41
2023-02-16T19:05:22.019Z,101371.63
2023-02-16T19:07:48.832Z,101354.03
2023-02-16T19:10:15.647Z,101365.00
2023-02-16T19:12:45.183Z,101352.41
2023-02-16T19:15:11.856Z,101362.25
2023-02-16T19:17:38.695Z,101367.75
2023-02-16T19:20:14.461Z,101360.63
2023-02-16T19:22:41.350Z,101367.44
2023-02-16T19:25:08.211Z,101368.28
2023-02-16T19:27:34.935Z,101375.69
2023-02-16T19:30:01.680Z,101366.34
2023-02-16T19:32:28.318Z,101369.38
2023-02-16T19:34:54.973Z,101368.56
2023-02-16T19:37:21.580Z,101362.84
2023-02-16T19:39:48.201Z,101376.00
2023-02-16T19:42:15.162Z,101361.00
2023-02-16T19:44:41.786Z,101373.81
2023-02-16T19:47:08.390Z,101380.38
2023-02-16T19:49:36.497Z,101375.22
2023-02-16T19:52:04.180Z,101382.06
2023-02-16T19:54:33.074Z,101397.44
2023-02-16T19:56:59.672Z,101390.88
2023-02-16T19:59:26.388Z,101390.00
2023-02-16T20:01:53.150Z,101393.88
2023-02-16T20:04:19.848Z,101384.81
2023-02-16T20:06:47.109Z,101391.13
2023-02-16T20:09:16.440Z,101394.19
2023-02-16T20:11:43.239Z,101394.19
2023-02-16T20:14:10.877Z,101398.56
2023-02-16T20:16:37.701Z,101404.59
2023-02-16T20:19:07.154Z,101399.09
2023-02-16T20:21:36.789Z,101404.06
2023-02-16T20:24:06.501Z,101406.50
2023-02-16T20:26:35.108Z,101405.19
2023-02-16T20:29:02.305Z,101402.94
2023-02-16T20:31:32.550Z,101393.66
2023-02-16T20:33:59.406Z,101395.81
2023-02-16T20:36:26.249Z,101395.81
2023-02-16T20:38:52.924Z,101392.53
2023-02-16T20:41:22.696Z,101383.78
2023-02-16T20:43:50.146Z,101387.03
2023-02-16T20:46:17.196Z,101369.25
2023-02-16T20:48:44.023Z,101375.81
2023-02-16T20:51:10.957Z,101387.88
2023-02-16T20:53:37.545Z,101375.53
2023-02-16T20:56:24.066Z,101377.47
2023-02-16T20:58:51.697Z,101379.09
2023-02-16T21:01:30.308Z,101374.41
2023-02-16T21:03:58.363Z,101374.97
2023-02-16T21:06:26.422Z,101375.81
2023-02-16T21:08:53.070Z,101373.34
2023-02-16T21:11:19.740Z,101373.91
2023-02-16T21:13:46.468Z,101354.72
2023-02-16T21:16:14.182Z,101344.59
2023-02-16T21:18:41.221Z,101354.69
2023-02-16T21:21:08.221Z,101365.66
2023-02-16T21:23:34.975Z,101363.19
2023-02-16T21:26:03.392Z,101364.00
2023-02-16T21:28:30.394Z,101369.50
2023-02-16T21:30:58.342Z,101364.00
2023-02-16T21:33:24.898Z,101361.00
2023-02-16T21:35:51.492Z,101364.00
2023-02-16T21:38:18.161Z,101359.06
2023-02-16T21:41:03.415Z,101352.50
2023-02-16T21:43:30.032Z,101353.56
2023-02-16T21:46:02.874Z,101353.88
2023-02-16T21:48:47.865Z,101350.78
2023-02-16T21:51:19.752Z,101340.13
2023-02-16T21:53:46.373Z,101339.31
2023-02-16T21:56:27.103Z,101333.00
2023-02-16T21:58:53.703Z,101334.91
2023-02-16T22:01:24.759Z,101315.56
2023-02-16T22:03:56.271Z,101290.72
2023-02-16T22:06:24.810Z,101276.00
2023-02-16T22:08:51.657Z,101339.72
2023-02-16T22:11:18.396Z,101290.19
2023-02-16T22:13:45.184Z,101283.59
2023-02-16T22:16:17.598Z,101332.28
2023-02-16T22:18:44.421Z,101284.66
2023-02-16T22:21:11.233Z,101281.72
2023-02-16T22:23:38.179Z,101276.56
2023-02-16T22:26:06.276Z,101299.56
2023-02-16T22:28:33.579Z,101296.81
